createdAt,value
2022-11-25T00:02:07.497Z,1.20
2022-11-25T00:04:40.666Z,0.90
2022-11-25T00:07:11.679Z,1.20
2022-11-25T00:09:43.662Z,1.10
2022-11-25T00:12:14.464Z,1.30
2022-11-25T00:14:45.292Z,1.50
2022-11-25T00:17:16.558Z,1.20
2022-11-25T00:19:47.489Z,1.40
2022-11-25T00:22:19.192Z,1.63
2022-11-25T00:24:50.826Z,1.40
2022-11-25T00:27:21.808Z,1.35
2022-11-25T00:29:52.947Z,1.27
2022-11-25T00:32:24.351Z,1.45
2022-11-25T00:34:55.352Z,1.38
2022-11-25T00:37:26.641Z,1.27
2022-11-25T00:39:57.585Z,1.45
2022-11-25T00:42:46.292Z,1.50
2022-11-25T00:45:17.076Z,1.40
2022-11-25T00:47:48.559Z,1.30
2022-11-25T00:50:21.905Z,1.10
2022-11-25T00:52:53.082Z,1.17
2022-11-25T00:55:24.412Z,1.08
2022-11-25T00:57:55.329Z,1.70
2022-11-25T01:00:26.659Z,1.60
2022-11-25T01:02:57.420Z,1.88
2022-11-25T01:05:28.505Z,1.25
2022-11-25T01:08:00.147Z,1.17
2022-11-25T01:13:02.981Z,1.27
2022-11-25T01:15:33.695Z,1.10
2022-11-25T01:20:36.454Z,1.13
2022-11-25T01:23:07.375Z,1.40
2022-11-25T01:25:40.217Z,1.20
2022-11-25T01:28:11.200Z,1.17
2022-11-25T01:30:42.679Z,1.08
2022-11-25T01:33:13.427Z,1.88
2022-11-25T01:35:44.187Z,1.52
2022-11-25T01:38:14.913Z,1.40
2022-11-25T01:40:48.292Z,1.20
2022-11-25T01:43:19.206Z,1.20
2022-11-25T01:45:50.168Z,1.33
2022-11-25T01:48:28.371Z,1.35
2022-11-25T01:50:59.305Z,1.10
2022-11-25T01:53:30.121Z,1.60
2022-11-25T01:56:04.196Z,1.25
2022-11-25T01:58:38.150Z,1.40
2022-11-25T02:01:09.713Z,1.13
2022-11-25T02:06:41.059Z,1.65
2022-11-25T02:09:12.742Z,1.00
2022-11-25T02:11:45.382Z,1.15
2022-11-25T02:14:17.351Z,1.33
2022-11-25T02:16:48.700Z,1.45
2022-11-25T02:19:46.404Z,1.08
2022-11-25T02:22:26.564Z,1.48
2022-11-25T02:25:02.741Z,1.40
2022-11-25T02:27:34.672Z,1.40
2022-11-25T02:30:06.144Z,1.13
2022-11-25T02:32:37.004Z,1.30
2022-11-25T02:35:31.008Z,1.20
2022-11-25T02:38:14.246Z,1.33
2022-11-25T02:41:25.161Z,1.38
2022-11-25T02:44:01.608Z,1.52
2022-11-25T02:49:09.921Z,1.20
2022-11-25T02:51:46.783Z,1.25
2022-11-25T02:54:18.342Z,1.48
2022-11-25T02:56:49.095Z,1.35
2022-11-25T02:59:20.318Z,1.38
2022-11-25T03:01:51.739Z,1.17
2022-11-25T03:04:22.722Z,1.40
2022-11-25T03:06:53.662Z,1.30
2022-11-25T03:09:24.610Z,1.10
2022-11-25T03:12:15.303Z,1.20
2022-11-25T03:14:46.685Z,0.90
2022-11-25T03:17:17.495Z,1.10
2022-11-25T03:19:48.780Z,0.88
2022-11-25T03:22:19.660Z,1.10
2022-11-25T03:24:50.678Z,1.20
2022-11-25T03:27:23.553Z,1.05
2022-11-25T03:32:25.678Z,1.10
2022-11-25T03:34:57.004Z,1.20
2022-11-25T03:37:28.122Z,1.45
2022-11-25T03:39:59.232Z,1.90
2022-11-25T03:42:30.463Z,1.50
2022-11-25T03:45:01.747Z,1.50
2022-11-25T03:47:35.139Z,1.70
2022-11-25T03:50:07.337Z,1.23
2022-11-25T03:52:38.630Z,1.00
2022-11-25T03:55:14.462Z,1.20
2022-11-25T03:57:48.407Z,1.15
2022-11-25T04:00:19.595Z,1.20
2022-11-25T04:03:03.976Z,1.15
2022-11-25T04:05:36.361Z,1.30
2022-11-25T04:08:10.490Z,1.45
2022-11-25T04:10:42.470Z,1.42
2022-11-25T04:13:14.736Z,1.10
2022-11-25T04:15:50.562Z,1.40
2022-11-25T04:18:22.471Z,1.63
2022-11-25T04:20:59.601Z,2.20
2022-11-25T04:23:30.385Z,1.60
2022-11-25T04:26:07.459Z,1.30
2022-11-25T04:28:42.515Z,1.42
2022-11-25T04:31:14.457Z,1.10
2022-11-25T04:33:52.235Z,1.20
2022-11-25T04:36:26.460Z,1.30
2022-11-25T04:41:28.857Z,1.20
2022-11-25T04:44:02.308Z,1.30
2022-11-25T04:46:39.617Z,1.10
2022-11-25T04:49:11.721Z,1.25
2022-11-25T04:51:43.098Z,1.30
2022-11-25T04:56:49.464Z,1.23
2022-11-25T04:59:40.111Z,0.98
2022-11-25T05:02:21.202Z,0.95
2022-11-25T05:05:07.592Z,1.10
2022-11-25T05:07:40.234Z,1.20
2022-11-25T05:10:11.706Z,1.20
2022-11-25T05:12:47.882Z,1.25
2022-11-25T05:15:21.637Z,1.20
2022-11-25T05:17:52.698Z,1.10
2022-11-25T05:20:38.172Z,1.13
2022-11-25T05:23:08.914Z,1.50
2022-11-25T05:25:40.472Z,1.33
2022-11-25T05:28:29.634Z,1.10
2022-11-25T05:31:01.469Z,1.10
2022-11-25T05:33:34.078Z,1.50
2022-11-25T05:36:07.619Z,1.13
2022-11-25T05:38:47.811Z,1.25
2022-11-25T05:41:26.770Z,1.27
2022-11-25T05:43:58.646Z,1.48
2022-11-25T05:46:30.105Z,1.00
2022-11-25T05:49:02.112Z,1.10
2022-11-25T05:51:33.475Z,1.10
2022-11-25T05:54:07.536Z,1.25
2022-11-25T05:56:41.002Z,1.00
2022-11-25T05:59:34.610Z,1.08
2022-11-25T06:02:13.976Z,1.20
2022-11-25T06:04:45.144Z,1.30
2022-11-25T06:07:16.331Z,1.10
2022-11-25T06:09:47.467Z,1.50
2022-11-25T06:12:18.800Z,1.10
2022-11-25T06:14:53.503Z,1.20
2022-11-25T06:17:25.684Z,1.45
2022-11-25T06:20:11.039Z,1.20
2022-11-25T06:22:41.882Z,1.60
2022-11-25T06:25:13.643Z,1.13
2022-11-25T06:28:11.190Z,1.40
2022-11-25T06:30:36.807Z,1.93
2022-11-25T06:33:20.621Z,1.30
2022-11-25T06:35:53.247Z,1.55
2022-11-25T06:38:24.024Z,1.52
2022-11-25T06:40:59.168Z,1.42
2022-11-25T06:43:31.427Z,1.42
2022-11-25T06:46:10.231Z,1.58
2022-11-25T06:48:41.359Z,1.35
2022-11-25T06:51:16.131Z,1.55
2022-11-25T06:53:47.346Z,1.42
2022-11-25T06:56:22.032Z,1.20
2022-11-25T06:58:53.546Z,1.25
2022-11-25T07:03:58.617Z,0.90
2022-11-25T07:06:30.100Z,1.10
2022-11-25T07:09:01.007Z,1.20
2022-11-25T07:11:34.736Z,1.85
2022-11-25T07:14:11.708Z,1.23
2022-11-25T07:16:44.940Z,1.23
2022-11-25T07:19:18.646Z,1.23
2022-11-25T07:21:51.360Z,2.03
2022-11-25T07:24:22.385Z,1.67
2022-11-25T07:26:53.534Z,1.40
2022-11-25T07:29:50.347Z,1.90
2022-11-25T07:32:15.719Z,1.60
2022-11-25T07:34:46.746Z,1.57
2022-11-25T07:37:19.345Z,1.30
2022-11-25T07:39:50.315Z,1.20
2022-11-25T07:42:21.503Z,1.55
2022-11-25T07:44:52.211Z,1.45
2022-11-25T07:47:48.851Z,1.50
2022-11-25T07:50:19.671Z,1.35
2022-11-25T07:52:50.406Z,1.65
2022-11-25T07:55:21.301Z,1.48
2022-11-25T07:57:52.547Z,1.42
2022-11-25T08:00:24.344Z,1.40
2022-11-25T08:05:25.876Z,1.20
2022-11-25T08:07:57.138Z,1.25
2022-11-25T08:10:28.110Z,1.35
2022-11-25T08:12:59.202Z,1.33
2022-11-25T08:15:30.247Z,1.27
2022-11-25T08:18:01.146Z,1.50
2022-11-25T08:20:32.933Z,1.48
2022-11-25T08:23:04.123Z,1.38
2022-11-25T08:25:35.207Z,1.40
2022-11-25T08:28:06.126Z,1.50
2022-11-25T08:30:38.032Z,1.23
2022-11-25T08:33:09.392Z,1.45
2022-11-25T08:35:40.697Z,1.35
2022-11-25T08:38:14.019Z,1.20
2022-11-25T08:40:48.491Z,1.30
2022-11-25T08:43:24.992Z,1.20
2022-11-25T08:46:01.660Z,1.27
2022-11-25T08:48:32.387Z,2.75
2022-11-25T08:51:03.259Z,5.88
2022-11-25T08:53:34.156Z,4.90
2022-11-25T08:56:05.557Z,3.35
2022-11-25T08:58:37.483Z,1.92
2022-11-25T09:01:09.629Z,1.60
2022-11-25T09:06:12.777Z,1.83
2022-11-25T09:11:16.064Z,2.78
2022-11-25T09:13:47.400Z,1.90
2022-11-25T09:16:18.324Z,2.20
2022-11-25T09:18:55.310Z,2.90
2022-11-25T09:21:26.793Z,2.53
2022-11-25T09:23:58.090Z,5.03
2022-11-25T09:26:32.592Z,2.42
2022-11-25T09:29:05.103Z,2.30
2022-11-25T09:31:36.219Z,2.40
2022-11-25T09:34:08.741Z,2.30
2022-11-25T09:36:40.004Z,2.60
2022-11-25T09:39:11.870Z,2.80
2022-11-25T09:42:33.368Z,2.60
2022-11-25T09:45:22.425Z,2.50
2022-11-25T09:47:57.540Z,2.83
2022-11-25T09:50:35.914Z,2.80
2022-11-25T09:53:18.936Z,2.83
2022-11-25T09:55:55.928Z,2.10
2022-11-25T09:58:46.927Z,2.50
2022-11-25T10:01:25.095Z,2.20
2022-11-25T10:04:05.419Z,2.42
2022-11-25T10:06:40.483Z,2.00
2022-11-25T10:09:17.734Z,2.50
2022-11-25T10:11:53.555Z,2.80
2022-11-25T10:14:57.897Z,3.83
2022-11-25T10:17:38.492Z,2.35
2022-11-25T10:20:17.341Z,2.40
2022-11-25T10:22:50.698Z,2.25
2022-11-25T10:25:27.883Z,2.00
2022-11-25T10:28:13.010Z,1.80
2022-11-25T10:30:53.625Z,1.55
2022-11-25T10:33:52.605Z,1.83
2022-11-25T10:36:49.934Z,1.80
2022-11-25T10:39:33.220Z,1.65
2022-11-25T10:42:16.497Z,2.45
2022-11-25T10:44:47.440Z,1.85
2022-11-25T10:47:33.592Z,2.08
2022-11-25T10:50:36.257Z,1.85
2022-11-25T10:53:15.725Z,2.08
2022-11-25T10:56:01.999Z,0.98
2022-11-25T10:58:39.537Z,1.55
2022-11-25T11:01:24.474Z,2.38
2022-11-25T11:04:07.885Z,1.70
2022-11-25T11:06:41.327Z,2.15
2022-11-25T11:09:38.051Z,3.17
2022-11-25T11:12:24.028Z,1.58
2022-11-25T11:14:56.721Z,1.35
2022-11-25T11:17:37.814Z,1.60
2022-11-25T11:20:15.691Z,1.38
2022-11-25T11:22:54.174Z,1.40
2022-11-25T11:25:28.984Z,1.38
2022-11-25T11:28:01.429Z,1.48
2022-11-25T11:30:34.729Z,1.48
2022-11-25T11:33:09.389Z,1.50
2022-11-25T11:35:56.381Z,1.70
2022-11-25T11:38:27.217Z,1.42
2022-11-25T11:41:07.806Z,1.42
2022-11-25T11:44:00.040Z,1.33
2022-11-25T11:46:55.188Z,1.50
2022-11-25T11:49:52.190Z,1.10
2022-11-25T11:52:35.063Z,1.40
2022-11-25T11:55:29.099Z,1.23
2022-11-25T11:58:44.404Z,1.00
2022-11-25T12:01:39.419Z,1.05
2022-11-25T12:04:41.996Z,1.23
2022-11-25T12:07:47.956Z,1.02
2022-11-25T12:10:43.223Z,1.02
2022-11-25T12:13:40.563Z,1.10
2022-11-25T12:16:20.027Z,1.20
2022-11-25T12:19:16.355Z,1.30
2022-11-25T12:22:08.596Z,1.20
2022-11-25T12:25:08.383Z,0.80
2022-11-25T12:28:19.861Z,1.35
2022-11-25T12:31:29.187Z,1.15
2022-11-25T12:34:08.239Z,1.30
2022-11-25T12:36:43.426Z,1.17
2022-11-25T12:39:27.902Z,1.30
2022-11-25T12:42:11.159Z,1.17
2022-11-25T12:45:09.414Z,1.25
2022-11-25T12:47:40.348Z,1.13
2022-11-25T12:50:23.518Z,1.25
2022-11-25T12:53:10.494Z,1.13
2022-11-25T12:55:42.248Z,1.02
2022-11-25T12:58:37.854Z,1.40
2022-11-25T13:01:27.753Z,1.13
2022-11-25T13:04:20.302Z,1.10
2022-11-25T13:07:09.592Z,1.48
2022-11-25T13:10:01.974Z,1.08
2022-11-25T13:12:54.695Z,1.30
2022-11-25T13:15:47.617Z,1.00
2022-11-25T13:18:24.384Z,1.02
2022-11-25T13:20:59.286Z,1.23
2022-11-25T13:23:31.973Z,0.88
2022-11-25T13:26:30.714Z,1.35
2022-11-25T13:29:03.252Z,1.10
2022-11-25T13:31:59.398Z,1.20
2022-11-25T13:34:37.828Z,0.98
2022-11-25T13:37:38.281Z,1.27
2022-11-25T13:40:31.790Z,1.10
2022-11-25T13:43:03.310Z,1.00
2022-11-25T13:45:41.065Z,1.20
2022-11-25T13:48:22.598Z,1.08
2022-11-25T13:51:10.812Z,1.10
2022-11-25T13:53:43.134Z,1.10
2022-11-25T13:56:30.683Z,0.95
2022-11-25T13:59:13.871Z,1.00
2022-11-25T14:02:36.767Z,1.02
2022-11-25T14:05:14.270Z,1.20
2022-11-25T14:08:12.806Z,0.90
2022-11-25T14:11:20.073Z,1.65
2022-11-25T14:13:50.964Z,1.20
2022-11-25T14:16:43.775Z,1.10
2022-11-25T14:19:53.145Z,1.20
2022-11-25T14:22:46.615Z,1.10
2022-11-25T14:25:31.687Z,1.00
2022-11-25T14:28:32.027Z,1.23
2022-11-25T14:31:07.474Z,1.00
2022-11-25T14:33:54.063Z,0.90
2022-11-25T14:36:32.417Z,0.90
2022-11-25T14:39:09.222Z,1.05
2022-11-25T14:41:46.452Z,0.75
2022-11-25T14:44:23.297Z,1.10
2022-11-25T14:46:59.703Z,1.00
2022-11-25T14:50:05.366Z,0.93
2022-11-25T14:52:39.410Z,0.98
2022-11-25T14:55:11.263Z,1.05
2022-11-25T14:57:46.755Z,1.25
2022-11-25T15:00:20.105Z,1.20
2022-11-25T15:03:04.673Z,1.30
2022-11-25T15:05:41.037Z,1.10
2022-11-25T15:08:13.118Z,1.20
2022-11-25T15:10:53.386Z,1.15
2022-11-25T15:13:44.370Z,1.00
2022-11-25T15:16:18.225Z,1.48
2022-11-25T15:18:54.980Z,1.10
2022-11-25T15:21:34.141Z,1.15
2022-11-25T15:24:06.592Z,1.20
2022-11-25T15:26:39.071Z,1.13
2022-11-25T15:29:15.214Z,1.00
2022-11-25T15:31:48.812Z,1.20
2022-11-25T15:34:22.798Z,1.30
2022-11-25T15:36:54.687Z,1.20
2022-11-25T15:39:29.561Z,1.33
2022-11-25T15:42:24.740Z,1.15
2022-11-25T15:44:56.065Z,1.00
2022-11-25T15:47:31.712Z,1.00
2022-11-25T15:50:04.761Z,0.80
2022-11-25T15:52:38.267Z,1.10
2022-11-25T15:55:35.089Z,0.95
2022-11-25T15:58:16.845Z,1.00
2022-11-25T16:01:03.332Z,0.90
2022-11-25T16:03:36.742Z,1.15
2022-11-25T16:06:21.149Z,1.00
2022-11-25T16:09:02.855Z,1.10
2022-11-25T16:11:46.936Z,1.85
2022-11-25T16:14:39.081Z,0.93
2022-11-25T16:17:14.186Z,1.17
2022-11-25T16:19:47.538Z,0.85
2022-11-25T16:22:20.394Z,1.00
2022-11-25T16:25:02.205Z,1.17
2022-11-25T16:27:34.020Z,0.98
2022-11-25T16:30:08.186Z,1.45
2022-11-25T16:32:39.742Z,0.93
2022-11-25T16:35:23.743Z,1.92
2022-11-25T16:38:00.019Z,1.25
2022-11-25T16:40:31.175Z,1.00
2022-11-25T16:43:03.177Z,1.10
2022-11-25T16:45:34.496Z,1.08
2022-11-25T16:48:10.815Z,1.10
2022-11-25T16:50:42.069Z,1.10
2022-11-25T16:53:13.286Z,1.07
2022-11-25T16:55:47.259Z,1.20
2022-11-25T16:58:21.914Z,1.02
2022-11-25T17:00:56.111Z,1.55
2022-11-25T17:03:28.112Z,1.10
2022-11-25T17:05:59.493Z,1.00
2022-11-25T17:08:30.487Z,0.90
2022-11-25T17:11:01.831Z,1.20
2022-11-25T17:13:32.589Z,1.00
2022-11-25T17:16:03.478Z,0.85
2022-11-25T17:18:34.497Z,1.27
2022-11-25T17:21:05.373Z,1.10
2022-11-25T17:23:36.638Z,0.98
2022-11-25T17:26:07.907Z,1.10
2022-11-25T17:28:38.910Z,0.85
2022-11-25T17:31:11.965Z,1.17
2022-11-25T17:33:47.494Z,0.90
2022-11-25T17:36:18.663Z,1.10
2022-11-25T17:38:49.878Z,1.00
2022-11-25T17:41:25.690Z,1.20
2022-11-25T17:43:57.885Z,1.02
2022-11-25T17:46:31.011Z,1.10
2022-11-25T17:49:01.960Z,1.15
2022-11-25T17:51:32.934Z,1.10
2022-11-25T17:54:03.904Z,1.93
2022-11-25T17:56:35.239Z,1.75
2022-11-25T17:59:11.850Z,1.33
2022-11-25T18:01:42.971Z,1.40
2022-11-25T18:04:43.827Z,1.50
2022-11-25T18:07:14.805Z,1.55
2022-11-25T18:09:46.501Z,1.73
2022-11-25T18:12:37.867Z,1.40
2022-11-25T18:15:09.833Z,1.35
2022-11-25T18:17:41.110Z,1.20
2022-11-25T18:20:23.825Z,1.10
2022-11-25T18:22:55.558Z,1.20
2022-11-25T18:25:30.127Z,1.10
2022-11-25T18:28:01.921Z,1.20
2022-11-25T18:30:35.507Z,1.10
2022-11-25T18:33:08.110Z,1.10
2022-11-25T18:35:38.917Z,1.10
2022-11-25T18:38:10.357Z,1.30
2022-11-25T18:40:45.570Z,1.30
2022-11-25T18:43:24.965Z,1.13
2022-11-25T18:45:57.184Z,1.23
2022-11-25T18:48:29.056Z,1.33
2022-11-25T18:50:59.936Z,1.10
2022-11-25T18:53:31.136Z,1.13
2022-11-25T18:56:02.617Z,1.10
2022-11-25T18:58:34.533Z,1.10
2022-11-25T19:03:37.223Z,0.98
2022-11-25T19:06:08.648Z,0.93
2022-11-25T19:08:39.642Z,0.98
2022-11-25T19:11:20.382Z,1.20
2022-11-25T19:13:54.854Z,1.10
2022-11-25T19:16:26.085Z,1.10
2022-11-25T19:18:57.407Z,0.93
2022-11-25T19:21:28.368Z,1.40
2022-11-25T19:23:59.528Z,1.20
2022-11-25T19:26:32.381Z,1.15
2022-11-25T19:29:13.097Z,1.33
2022-11-25T19:31:43.852Z,1.15
2022-11-25T19:34:38.330Z,1.00
2022-11-25T19:37:17.225Z,1.20
2022-11-25T19:39:49.645Z,1.00
2022-11-25T19:42:21.093Z,1.00
2022-11-25T19:44:52.162Z,0.88
2022-11-25T19:47:28.237Z,0.85
2022-11-25T19:50:02.336Z,1.10
2022-11-25T19:52:39.530Z,1.05
2022-11-25T19:55:16.480Z,1.08
2022-11-25T19:57:47.875Z,1.05
2022-11-25T20:00:20.456Z,1.50
2022-11-25T20:02:56.336Z,1.00
2022-11-25T20:05:35.339Z,1.20
2022-11-25T20:08:06.702Z,1.13
2022-11-25T20:10:37.526Z,1.00
2022-11-25T20:13:10.314Z,0.90
2022-11-25T20:15:42.381Z,0.88
2022-11-25T20:18:21.727Z,0.95
2022-11-25T20:20:58.694Z,0.85
2022-11-25T20:23:48.502Z,0.90
2022-11-25T20:26:41.686Z,0.90
2022-11-25T20:29:27.508Z,1.00
2022-11-25T20:32:01.313Z,0.80
2022-11-25T20:34:36.159Z,0.85
2022-11-25T20:37:11.085Z,0.98
2022-11-25T20:39:42.336Z,0.70
2022-11-25T20:42:14.606Z,0.80
2022-11-25T20:44:45.755Z,0.70
2022-11-25T20:47:20.079Z,0.73
2022-11-25T20:49:50.873Z,0.90
2022-11-25T20:52:35.203Z,0.80
2022-11-25T20:55:25.873Z,0.98
2022-11-25T20:57:57.037Z,0.82
2022-11-25T21:00:29.931Z,0.82
2022-11-25T21:03:01.297Z,0.75
2022-11-25T21:05:32.006Z,0.70
2022-11-25T21:08:03.281Z,0.70
2022-11-25T21:10:37.479Z,0.93
2022-11-25T21:13:15.682Z,0.65
2022-11-25T21:15:46.907Z,0.75
2022-11-25T21:18:18.527Z,0.60
2022-11-25T21:23:28.942Z,0.70
2022-11-25T21:26:08.035Z,0.85
2022-11-25T21:28:42.406Z,0.75
2022-11-25T21:31:25.144Z,0.80
2022-11-25T21:34:00.248Z,0.68
2022-11-25T21:36:32.667Z,0.88
2022-11-25T21:39:17.937Z,0.70
2022-11-25T21:41:48.921Z,0.70
2022-11-25T21:44:28.690Z,0.80
2022-11-25T21:46:59.872Z,0.70
2022-11-25T21:49:31.230Z,0.73
2022-11-25T21:52:02.287Z,0.70
2022-11-25T21:54:33.544Z,0.80
2022-11-25T21:57:04.354Z,0.70
2022-11-25T21:59:35.272Z,0.70
2022-11-25T22:02:20.033Z,0.63
2022-11-25T22:04:51.123Z,0.70
2022-11-25T22:07:25.116Z,0.93
2022-11-25T22:09:58.867Z,0.55
2022-11-25T22:12:34.380Z,0.50
2022-11-25T22:15:12.519Z,0.60
2022-11-25T22:17:44.129Z,1.02
2022-11-25T22:20:34.936Z,0.57
2022-11-25T22:23:18.392Z,0.70
2022-11-25T22:25:50.325Z,0.50
2022-11-25T22:28:25.196Z,0.60
2022-11-25T22:30:58.458Z,0.70
2022-11-25T22:33:34.337Z,0.47
2022-11-25T22:36:05.917Z,0.50
2022-11-25T22:41:12.539Z,0.40
2022-11-25T22:43:47.747Z,0.50
2022-11-25T22:46:18.778Z,0.68
2022-11-25T22:48:49.880Z,0.52
2022-11-25T22:51:26.105Z,0.60
2022-11-25T22:53:56.875Z,0.60
2022-11-25T23:01:32.869Z,0.60
2022-11-25T23:04:04.566Z,0.60
2022-11-25T23:06:35.767Z,0.63
2022-11-25T23:09:07.949Z,0.60
2022-11-25T23:11:40.113Z,0.75
2022-11-25T23:14:11.285Z,0.70
2022-11-25T23:16:44.229Z,0.75
2022-11-25T23:19:18.786Z,0.63
2022-11-25T23:21:50.050Z,0.82
2022-11-25T23:24:21.093Z,0.60
2022-11-25T23:26:51.820Z,0.80
2022-11-25T23:29:22.589Z,0.70
2022-11-25T23:31:53.592Z,0.77
2022-11-25T23:34:24.556Z,0.80
2022-11-25T23:36:55.739Z,0.80
2022-11-25T23:39:28.159Z,0.68
2022-11-25T23:41:59.386Z,0.70
2022-11-25T23:44:33.062Z,0.90
2022-11-25T23:47:06.358Z,0.90
2022-11-25T23:49:41.106Z,0.88
2022-11-25T23:52:16.060Z,0.90
2022-11-25T23:54:49.519Z,0.82
2022-11-25T23:57:32.286Z,0.90
